createdAt,value
2022-09-11T00:01:29.338Z,3.83
2022-09-11T00:03:57.116Z,3.35
2022-09-11T00:06:29.923Z,4.72
2022-09-11T00:09:03.533Z,9.25
2022-09-11T00:11:48.625Z,5.93
2022-09-11T00:14:15.563Z,5.07
2022-09-11T00:16:45.531Z,5.07
2022-09-11T00:19:15.864Z,4.70
2022-09-11T00:21:43.112Z,8.05
2022-09-11T00:24:10.356Z,5.75
2022-09-11T00:26:38.608Z,6.93
2022-09-11T00:29:05.553Z,8.80
2022-09-11T00:31:32.994Z,5.28
2022-09-11T00:34:00.089Z,7.00
2022-09-11T00:36:29.627Z,8.20
2022-09-11T00:38:58.122Z,6.75
2022-09-11T00:41:36.383Z,5.57
2022-09-11T00:44:06.190Z,7.00
2022-09-11T00:46:47.243Z,7.97
2022-09-11T00:49:35.208Z,6.60
2022-09-11T00:52:08.608Z,5.43
2022-09-11T00:54:43.257Z,8.90
2022-09-11T00:57:10.932Z,6.15
2022-09-11T00:59:41.593Z,6.82
2022-09-11T01:02:13.862Z,7.07
2022-09-11T01:04:40.960Z,7.22
2022-09-11T01:07:07.976Z,10.95
2022-09-11T01:09:34.925Z,9.23
2022-09-11T01:12:07.081Z,8.98
2022-09-11T01:15:01.780Z,11.18
2022-09-11T01:17:49.907Z,7.57
2022-09-11T01:20:39.023Z,6.57
2022-09-11T01:23:25.739Z,9.00
2022-09-11T01:26:01.569Z,8.73
2022-09-11T01:28:37.321Z,9.00
2022-09-11T01:31:12.343Z,10.45
2022-09-11T01:33:47.958Z,7.43
2022-09-11T01:36:34.314Z,11.10
2022-09-11T01:39:03.779Z,9.30
2022-09-11T01:41:53.233Z,9.60
2022-09-11T01:44:39.786Z,12.48
2022-09-11T01:47:11.996Z,11.18
2022-09-11T01:49:45.149Z,10.25
2022-09-11T01:52:29.891Z,11.75
2022-09-11T01:59:17.617Z,13.10
2022-09-11T02:01:51.361Z,11.70
2022-09-11T02:04:30.184Z,12.88
2022-09-11T02:07:11.172Z,11.95
2022-09-11T02:09:53.737Z,10.63
2022-09-11T02:12:28.271Z,12.45
2022-09-11T02:14:55.981Z,13.82
2022-09-11T02:17:24.659Z,12.40
2022-09-11T02:19:54.914Z,11.77
2022-09-11T02:22:22.376Z,14.00
2022-09-11T02:24:49.387Z,11.30
2022-09-11T02:27:28.255Z,15.00
2022-09-11T02:29:56.390Z,10.20
2022-09-11T02:32:23.931Z,13.68
2022-09-11T02:34:53.631Z,13.48
2022-09-11T02:37:34.698Z,14.88
2022-09-11T02:40:24.460Z,11.68
2022-09-11T02:43:02.015Z,12.27
2022-09-11T02:45:48.162Z,12.68
2022-09-11T02:48:17.976Z,13.57
2022-09-11T02:51:00.083Z,14.52
2022-09-11T02:53:40.295Z,13.93
2022-09-11T02:56:49.328Z,13.65
2022-09-11T02:59:24.502Z,18.20
2022-09-11T03:01:55.328Z,14.82
2022-09-11T03:04:25.732Z,15.98
2022-09-11T03:06:54.516Z,12.70
2022-09-11T03:09:22.076Z,14.98
2022-09-11T03:11:53.374Z,17.13
2022-09-11T03:14:20.324Z,14.70
2022-09-11T03:16:48.455Z,16.70
2022-09-11T03:19:15.543Z,15.63
2022-09-11T03:21:43.078Z,15.52
2022-09-11T03:24:10.254Z,18.55
2022-09-11T03:26:38.204Z,17.67
2022-09-11T03:29:05.351Z,16.13
2022-09-11T03:31:35.269Z,18.98
2022-09-11T03:34:04.355Z,15.77
2022-09-11T03:36:32.540Z,17.80
2022-09-11T03:38:59.517Z,17.83
2022-09-11T03:41:26.627Z,21.27
2022-09-11T03:43:53.684Z,20.92
2022-09-11T03:46:20.678Z,21.40
2022-09-11T03:48:47.652Z,21.08
2022-09-11T03:51:15.386Z,20.05
2022-09-11T03:53:43.160Z,20.13
2022-09-11T03:56:12.270Z,25.58
2022-09-11T03:58:46.471Z,23.52
2022-09-11T04:01:15.198Z,23.92
2022-09-11T04:03:43.226Z,26.98
2022-09-11T04:06:16.693Z,28.90
2022-09-11T04:08:43.865Z,26.77
2022-09-11T04:11:11.986Z,26.83
2022-09-11T04:13:41.220Z,26.45
2022-09-11T04:16:15.111Z,28.83
2022-09-11T04:18:45.947Z,27.92
2022-09-11T04:21:17.248Z,27.63
2022-09-11T04:23:52.208Z,26.73
2022-09-11T04:26:22.017Z,28.60
2022-09-11T04:28:52.885Z,29.65
2022-09-11T04:31:21.246Z,29.08
2022-09-11T04:33:48.934Z,30.15
2022-09-11T04:36:18.741Z,32.00
2022-09-11T04:38:47.090Z,30.80
2022-09-11T04:41:15.984Z,32.95
2022-09-11T04:43:43.216Z,32.10
2022-09-11T04:46:15.841Z,31.50
2022-09-11T04:48:51.851Z,35.22
2022-09-11T04:51:29.277Z,36.25
2022-09-11T04:53:59.041Z,33.20
2022-09-11T04:56:34.618Z,30.05
2022-09-11T04:59:22.505Z,32.42
2022-09-11T05:02:04.030Z,35.17
2022-09-11T05:04:31.481Z,35.95
2022-09-11T05:07:00.879Z,32.92
2022-09-11T05:09:29.027Z,34.17
2022-09-11T05:11:57.982Z,36.30
2022-09-11T05:14:30.238Z,36.65
2022-09-11T05:16:57.223Z,35.08
2022-09-11T05:19:25.891Z,36.50
2022-09-11T05:21:53.039Z,34.63
2022-09-11T05:24:20.422Z,34.92
2022-09-11T05:26:47.487Z,35.97
2022-09-11T05:29:16.095Z,32.53
2022-09-11T05:31:59.060Z,38.70
2022-09-11T05:34:28.992Z,40.20
2022-09-11T05:36:57.875Z,36.20
2022-09-11T05:39:27.444Z,38.10
2022-09-11T05:41:55.735Z,34.90
2022-09-11T05:44:25.874Z,33.85
2022-09-11T05:46:52.860Z,35.75
2022-09-11T05:49:20.935Z,36.22
2022-09-11T05:51:47.936Z,37.00
2022-09-11T05:54:15.835Z,34.50
2022-09-11T05:56:45.078Z,33.00
2022-09-11T05:59:20.673Z,34.30
2022-09-11T06:01:50.481Z,37.58
2022-09-11T06:04:31.108Z,38.08
2022-09-11T06:06:59.596Z,33.63
2022-09-11T06:09:28.163Z,39.90
2022-09-11T06:11:55.167Z,32.55
2022-09-11T06:14:22.104Z,35.75
2022-09-11T06:16:50.748Z,32.60
2022-09-11T06:19:18.050Z,36.03
2022-09-11T06:21:46.007Z,31.17
2022-09-11T06:24:36.674Z,34.03
2022-09-11T06:27:03.729Z,32.30
2022-09-11T06:29:33.473Z,34.45
2022-09-11T06:32:01.544Z,35.22
2022-09-11T06:34:31.672Z,29.30
2022-09-11T06:37:02.092Z,30.83
2022-09-11T06:39:28.960Z,29.17
2022-09-11T06:41:58.142Z,28.20
2022-09-11T06:44:28.967Z,28.08
2022-09-11T06:46:59.526Z,30.17
2022-09-11T06:49:26.771Z,28.83
2022-09-11T06:52:12.536Z,28.80
2022-09-11T06:54:44.707Z,28.92
2022-09-11T06:57:14.703Z,28.42
2022-09-11T06:59:43.188Z,29.30
2022-09-11T07:02:17.695Z,28.88
2022-09-11T07:04:47.516Z,30.00
2022-09-11T07:07:15.076Z,30.05
2022-09-11T07:09:43.353Z,27.10
2022-09-11T07:12:12.288Z,26.08
2022-09-11T07:14:39.872Z,26.73
2022-09-11T07:17:15.410Z,26.10
2022-09-11T07:19:44.573Z,28.35
2022-09-11T07:22:11.743Z,27.10
2022-09-11T07:24:38.679Z,25.40
2022-09-11T07:27:05.732Z,23.33
2022-09-11T07:32:02.676Z,23.60
2022-09-11T07:34:29.625Z,25.80
2022-09-11T07:36:58.921Z,23.45
2022-09-11T07:39:27.107Z,21.83
2022-09-11T07:41:59.718Z,24.67
2022-09-11T07:44:30.069Z,21.73
2022-09-11T07:46:57.813Z,25.45
2022-09-11T07:49:24.905Z,22.23
2022-09-11T07:51:52.844Z,22.08
2022-09-11T07:54:29.182Z,21.38
2022-09-11T07:59:25.268Z,23.25
2022-09-11T08:01:53.540Z,28.17
2022-09-11T08:04:21.298Z,25.70
2022-09-11T08:06:48.611Z,24.17
2022-09-11T08:09:27.704Z,22.70
2022-09-11T08:11:58.765Z,22.02
2022-09-11T08:14:27.463Z,24.05
2022-09-11T08:16:58.542Z,24.10
2022-09-11T08:19:28.198Z,22.20
2022-09-11T08:21:58.701Z,19.95
2022-09-11T08:24:27.457Z,20.42
2022-09-11T08:26:58.602Z,21.05
2022-09-11T08:29:27.005Z,19.45
2022-09-11T08:31:56.356Z,19.77
2022-09-11T08:34:26.276Z,22.83
2022-09-11T08:36:53.332Z,22.90
2022-09-11T08:39:20.519Z,21.55
2022-09-11T08:42:00.221Z,17.88
2022-09-11T08:44:38.533Z,18.42
2022-09-11T08:47:24.322Z,17.52
2022-09-11T08:50:20.396Z,19.42
2022-09-11T08:52:48.829Z,17.02
2022-09-11T08:55:26.274Z,16.67
2022-09-11T08:58:03.555Z,17.20
2022-09-11T09:00:42.418Z,16.50
2022-09-11T09:03:09.272Z,14.18
2022-09-11T09:05:56.525Z,16.33
2022-09-11T09:08:30.590Z,13.45
2022-09-11T09:11:14.756Z,16.48
2022-09-11T09:14:19.123Z,13.52
2022-09-11T09:17:21.755Z,14.88
2022-09-11T09:20:03.933Z,14.52
2022-09-11T09:22:47.325Z,14.55
2022-09-11T09:25:19.210Z,14.27
2022-09-11T09:27:48.813Z,16.27
2022-09-11T09:30:19.690Z,14.13
2022-09-11T09:33:27.367Z,15.05
2022-09-11T09:35:54.867Z,14.32
2022-09-11T09:38:28.624Z,13.73
2022-09-11T09:41:15.448Z,14.63
2022-09-11T09:43:58.181Z,12.70
2022-09-11T09:46:37.179Z,15.70
2022-09-11T09:49:04.803Z,14.70
2022-09-11T09:51:31.774Z,14.82
2022-09-11T09:54:01.605Z,13.15
2022-09-11T09:59:02.832Z,13.82
2022-09-11T10:01:46.458Z,12.43
2022-09-11T10:04:20.419Z,12.70
2022-09-11T10:06:49.827Z,10.18
2022-09-11T10:09:28.663Z,11.88
2022-09-11T10:12:02.933Z,12.57
2022-09-11T10:14:52.028Z,10.65
2022-09-11T10:17:38.571Z,13.55
2022-09-11T10:20:18.627Z,12.55
2022-09-11T10:22:46.419Z,11.02
2022-09-11T10:25:15.230Z,12.00
2022-09-11T10:28:02.353Z,10.77
2022-09-11T10:30:53.742Z,9.07
2022-09-11T10:33:35.130Z,10.02
2022-09-11T10:36:05.932Z,12.95
2022-09-11T10:38:41.446Z,10.30
2022-09-11T10:41:14.861Z,11.30
2022-09-11T10:43:50.203Z,12.38
2022-09-11T10:46:22.953Z,8.32
2022-09-11T10:48:56.104Z,9.57
2022-09-11T10:51:25.772Z,8.00
2022-09-11T10:54:16.725Z,8.45
2022-09-11T10:57:28.907Z,8.25
2022-09-11T11:00:12.006Z,7.88
2022-09-11T11:02:45.694Z,10.95
2022-09-11T11:05:43.871Z,11.05
2022-09-11T11:08:16.635Z,10.85
2022-09-11T11:11:24.922Z,9.90
2022-09-11T11:14:07.396Z,11.73
2022-09-11T11:17:13.479Z,11.75
2022-09-11T11:19:41.130Z,11.75
2022-09-11T11:22:50.383Z,10.80
2022-09-11T11:25:23.003Z,9.63
2022-09-11T11:28:17.450Z,12.20
2022-09-11T11:31:02.669Z,13.45
2022-09-11T11:33:50.609Z,12.88
2022-09-11T11:36:41.180Z,8.68
2022-09-11T11:39:32.972Z,8.38
2022-09-11T11:42:10.081Z,8.98
2022-09-11T11:44:44.308Z,8.63
2022-09-11T11:47:14.391Z,7.07
2022-09-11T11:49:59.365Z,6.97
2022-09-11T11:52:32.424Z,7.38
2022-09-11T11:55:16.950Z,8.00
2022-09-11T11:58:06.498Z,7.88
2022-09-11T12:00:39.300Z,7.38
2022-09-11T12:03:44.923Z,9.07
2022-09-11T12:06:12.318Z,9.07
2022-09-11T12:08:46.223Z,8.15
2022-09-11T12:11:26.145Z,7.72
2022-09-11T12:13:54.514Z,7.72
2022-09-11T12:16:32.813Z,6.13
2022-09-11T12:19:21.864Z,6.25
2022-09-11T12:21:54.922Z,6.60
2022-09-11T12:24:25.524Z,6.47
2022-09-11T12:27:33.223Z,7.70
2022-09-11T12:30:18.726Z,7.93
2022-09-11T12:32:51.288Z,6.57
2022-09-11T12:35:38.573Z,7.40
2022-09-11T12:38:13.415Z,9.40
2022-09-11T12:40:47.831Z,6.60
2022-09-11T12:43:37.597Z,6.57
2022-09-11T12:48:41.438Z,6.18
2022-09-11T12:51:32.786Z,6.88
2022-09-11T12:54:35.098Z,6.40
2022-09-11T12:58:02.564Z,6.05
2022-09-11T13:00:41.601Z,5.43
2022-09-11T13:03:28.540Z,5.18
2022-09-11T13:06:07.031Z,7.35
2022-09-11T13:08:55.495Z,5.65
2022-09-11T13:11:37.759Z,4.70
2022-09-11T13:14:49.315Z,4.57
2022-09-11T13:17:28.099Z,5.00
2022-09-11T13:20:22.679Z,4.10
2022-09-11T13:23:18.503Z,4.10
2022-09-11T13:25:58.209Z,5.40
2022-09-11T13:31:34.640Z,5.05
2022-09-11T13:34:05.239Z,5.20
2022-09-11T13:36:34.908Z,5.20
2022-09-11T13:41:33.608Z,4.70
2022-09-11T13:44:01.811Z,5.15
2022-09-11T13:50:54.836Z,4.90
2022-09-11T13:53:23.016Z,5.30
2022-09-11T13:55:49.985Z,4.95
2022-09-11T13:58:24.294Z,5.13
2022-09-11T14:00:52.878Z,5.30
2022-09-11T14:03:33.400Z,4.57
2022-09-11T14:06:04.705Z,4.60
2022-09-11T14:08:37.871Z,6.43
2022-09-11T14:11:20.507Z,5.63
2022-09-11T14:14:11.287Z,4.43
2022-09-11T14:16:54.980Z,5.00
2022-09-11T14:19:26.041Z,4.40
2022-09-11T14:21:53.086Z,4.68
2022-09-11T14:24:32.767Z,4.18
2022-09-11T14:29:38.445Z,4.00
2022-09-11T14:32:31.318Z,3.90
2022-09-11T14:34:59.086Z,3.90
2022-09-11T14:37:28.094Z,3.88
2022-09-11T14:40:00.779Z,4.07
2022-09-11T14:42:29.867Z,5.40
2022-09-11T14:44:56.771Z,3.15
2022-09-11T14:47:25.832Z,4.55
2022-09-11T14:49:55.047Z,4.15
2022-09-11T14:52:29.592Z,4.30
2022-09-11T14:55:00.043Z,5.38
2022-09-11T14:57:32.535Z,4.40
2022-09-11T14:59:59.614Z,4.95
2022-09-11T15:03:41.561Z,4.53
2022-09-11T15:06:16.142Z,5.38
2022-09-11T15:08:43.084Z,5.15
2022-09-11T15:11:09.945Z,6.47
2022-09-11T15:13:37.956Z,5.72
2022-09-11T15:16:12.299Z,6.32
2022-09-11T15:18:40.820Z,6.28
2022-09-11T15:21:08.109Z,5.63
2022-09-11T15:23:35.055Z,5.57
2022-09-11T15:26:02.627Z,6.10
2022-09-11T15:28:31.447Z,7.63
2022-09-11T15:31:02.964Z,7.63
2022-09-11T15:33:33.138Z,5.93
2022-09-11T15:36:05.179Z,8.88
2022-09-11T15:38:32.552Z,5.55
2022-09-11T15:41:13.851Z,6.35
2022-09-11T15:43:41.320Z,5.60
2022-09-11T15:46:11.328Z,5.50
2022-09-11T15:48:39.214Z,7.32
2022-09-11T15:51:11.459Z,5.13
2022-09-11T15:53:40.559Z,4.28
2022-09-11T15:56:16.459Z,5.05
2022-09-11T15:58:45.142Z,4.82
2022-09-11T16:01:27.720Z,6.10
2022-09-11T16:03:57.245Z,6.28
2022-09-11T16:06:26.253Z,4.68
2022-09-11T16:09:00.729Z,5.45
2022-09-11T16:11:27.758Z,5.65
2022-09-11T16:13:55.038Z,5.55
2022-09-11T16:16:23.158Z,5.10
2022-09-11T16:18:50.684Z,6.00
2022-09-11T16:21:19.172Z,5.93
2022-09-11T16:23:51.129Z,5.60
2022-09-11T16:26:21.244Z,6.03
2022-09-11T16:28:48.316Z,5.30
2022-09-11T16:31:16.160Z,6.43
2022-09-11T16:33:44.540Z,6.72
2022-09-11T16:36:17.273Z,7.80
2022-09-11T16:38:45.597Z,5.07
2022-09-11T16:41:16.251Z,5.32
2022-09-11T16:43:45.988Z,6.10
2022-09-11T16:48:41.212Z,4.93
2022-09-11T16:51:08.168Z,11.30
2022-09-11T16:53:35.836Z,7.50
2022-09-11T16:56:11.036Z,7.50
2022-09-11T16:58:38.629Z,6.65
2022-09-11T17:01:11.474Z,6.78
2022-09-11T17:03:41.580Z,5.43
2022-09-11T17:06:09.505Z,5.60
2022-09-11T17:08:39.271Z,5.82
2022-09-11T17:13:35.571Z,5.47
2022-09-11T17:16:16.626Z,9.10
2022-09-11T17:18:51.371Z,6.03
2022-09-11T17:21:18.321Z,5.97
2022-09-11T17:23:45.689Z,6.85
2022-09-11T17:26:17.338Z,7.38
2022-09-11T17:28:47.363Z,6.35
2022-09-11T17:31:16.389Z,6.00
2022-09-11T17:33:45.449Z,5.85
2022-09-11T17:36:14.139Z,6.05
2022-09-11T17:38:41.256Z,6.13
2022-09-11T17:41:09.461Z,6.90
2022-09-11T17:43:37.840Z,6.28
2022-09-11T17:46:13.684Z,5.80
2022-09-11T17:48:41.822Z,8.88
2022-09-11T17:51:11.859Z,6.60
2022-09-11T17:53:41.568Z,7.43
2022-09-11T17:58:38.253Z,6.97
2022-09-11T18:01:07.660Z,7.10
2022-09-11T18:03:35.447Z,7.95
2022-09-11T18:06:04.943Z,9.40
2022-09-11T18:08:33.454Z,6.93
2022-09-11T18:11:01.690Z,6.63
2022-09-11T18:13:31.447Z,7.15
2022-09-11T18:18:25.678Z,6.75
2022-09-11T18:20:56.244Z,7.82
2022-09-11T18:23:24.252Z,9.48
2022-09-11T18:25:51.637Z,8.05
2022-09-11T18:28:20.044Z,7.93
2022-09-11T18:30:47.512Z,10.30
2022-09-11T18:33:16.756Z,10.00
2022-09-11T18:35:44.404Z,10.40
2022-09-11T18:38:11.437Z,9.65
2022-09-11T18:40:39.195Z,11.82
2022-09-11T18:43:13.633Z,9.57
2022-09-11T18:45:41.577Z,8.90
2022-09-11T18:48:08.539Z,10.80
2022-09-11T18:50:36.358Z,9.20
2022-09-11T18:53:03.321Z,9.40
2022-09-11T18:55:30.322Z,11.02
2022-09-11T18:58:00.143Z,10.57
2022-09-11T19:00:29.871Z,7.90
2022-09-11T19:05:25.186Z,10.95
2022-09-11T19:07:52.388Z,9.60
2022-09-11T19:10:19.443Z,11.32
2022-09-11T19:12:48.268Z,10.38
2022-09-11T19:15:16.419Z,9.48
2022-09-11T19:17:47.728Z,9.73
2022-09-11T19:20:16.046Z,9.38
2022-09-11T19:22:43.182Z,13.52
2022-09-11T19:25:10.245Z,11.50
2022-09-11T19:27:39.842Z,9.45
2022-09-11T19:33:21.619Z,13.75
2022-09-11T19:36:04.458Z,9.98
2022-09-11T19:38:33.831Z,12.90
2022-09-11T19:41:00.891Z,11.95
2022-09-11T19:43:35.850Z,12.95
2022-09-11T19:46:06.742Z,13.05
2022-09-11T19:48:35.122Z,12.30
2022-09-11T19:51:02.025Z,12.02
2022-09-11T19:53:30.226Z,13.77
2022-09-11T19:55:59.790Z,10.48
2022-09-11T19:58:29.195Z,11.07
2022-09-11T20:00:56.590Z,13.80
2022-09-11T20:03:44.003Z,12.07
2022-09-11T20:06:13.291Z,10.70
2022-09-11T20:08:45.576Z,10.80
2022-09-11T20:11:21.292Z,13.52
2022-09-11T20:13:48.617Z,13.75
2022-09-11T20:16:20.129Z,10.27
2022-09-11T20:18:47.347Z,14.77
2022-09-11T20:21:16.231Z,13.32
2022-09-11T20:23:44.735Z,12.15
2022-09-11T20:26:20.615Z,13.85
2022-09-11T20:28:52.620Z,11.18
2022-09-11T20:31:22.672Z,11.43
2022-09-11T20:33:49.911Z,10.85
2022-09-11T20:36:22.661Z,12.27
2022-09-11T20:38:54.524Z,11.10
2022-09-11T20:41:23.723Z,12.30
2022-09-11T20:43:51.108Z,12.13
2022-09-11T20:46:19.200Z,12.90
2022-09-11T20:48:51.333Z,14.38
2022-09-11T20:51:18.698Z,10.85
2022-09-11T20:53:45.817Z,13.00
2022-09-11T20:56:15.434Z,12.70
2022-09-11T20:58:42.743Z,11.82
2022-09-11T21:01:13.527Z,11.80
2022-09-11T21:03:45.612Z,13.73
2022-09-11T21:06:12.714Z,15.52
2022-09-11T21:08:41.194Z,14.55
2022-09-11T21:11:08.988Z,13.95
2022-09-11T21:13:40.584Z,15.93
2022-09-11T21:16:10.273Z,16.83
2022-09-11T21:18:38.043Z,14.45
2022-09-11T21:21:05.124Z,15.25
2022-09-11T21:23:32.029Z,14.93
2022-09-11T21:25:59.218Z,15.88
2022-09-11T21:28:26.170Z,17.48
2022-09-11T21:30:53.768Z,16.23
2022-09-11T21:33:20.667Z,17.10
2022-09-11T21:35:52.664Z,18.77
2022-09-11T21:38:21.729Z,15.65
2022-09-11T21:45:07.391Z,16.42
2022-09-11T21:47:34.296Z,15.20
2022-09-11T21:50:01.270Z,13.18
2022-09-11T21:52:29.778Z,15.60
2022-09-11T21:54:57.696Z,16.00
2022-09-11T21:57:29.009Z,13.68
2022-09-11T21:59:56.594Z,14.18
2022-09-11T22:02:24.999Z,12.82
2022-09-11T22:04:52.942Z,15.38
2022-09-11T22:08:29.776Z,18.13
2022-09-11T22:10:56.982Z,15.43
2022-09-11T22:13:24.068Z,15.93
2022-09-11T22:15:51.207Z,14.85
2022-09-11T22:18:18.554Z,14.50
2022-09-11T22:20:46.099Z,13.23
2022-09-11T22:23:18.567Z,16.77
2022-09-11T22:25:45.612Z,15.13
2022-09-11T22:28:12.902Z,16.67
2022-09-11T22:30:44.081Z,16.30
2022-09-11T22:33:30.152Z,15.60
2022-09-11T22:35:57.052Z,15.82
2022-09-11T22:38:23.999Z,23.30
2022-09-11T22:40:54.599Z,18.27
2022-09-11T22:43:21.564Z,16.17
2022-09-11T22:45:52.452Z,16.05
2022-09-11T22:48:19.741Z,18.08
2022-09-11T22:50:46.695Z,15.55
2022-09-11T22:53:13.988Z,16.33
2022-09-11T22:55:45.397Z,16.85
2022-09-11T22:58:12.621Z,17.00
2022-09-11T23:00:40.882Z,18.38
2022-09-11T23:03:07.999Z,17.77
2022-09-11T23:05:53.813Z,17.95
2022-09-11T23:08:21.171Z,15.88
2022-09-11T23:10:48.151Z,20.08
2022-09-11T23:13:15.093Z,18.10
2022-09-11T23:15:42.053Z,14.27
2022-09-11T23:18:09.295Z,12.90
2022-09-11T23:20:36.217Z,19.67
2022-09-11T23:23:04.297Z,20.10
2022-09-11T23:25:31.734Z,18.42
2022-09-11T23:27:58.730Z,17.50
2022-09-11T23:30:25.780Z,18.65
2022-09-11T23:32:55.852Z,18.48
2022-09-11T23:35:22.704Z,16.90
2022-09-11T23:37:49.588Z,18.67
2022-09-11T23:40:16.612Z,19.70
2022-09-11T23:42:43.612Z,17.30
2022-09-11T23:45:12.803Z,16.00
2022-09-11T23:47:40.062Z,17.85
2022-09-11T23:50:07.429Z,17.00
2022-09-11T23:52:36.548Z,18.13
2022-09-11T23:55:04.610Z,17.85
2022-09-11T23:57:31.657Z,18.92
2022-09-11T23:59:58.863Z,23.55
